sensor_id;sensor_type;location;lat;lon;timestamp;temperature;humidity
43043;DHT22;28667;50.758;6.096;2022-09-03T00:05:18;17.60;71.30
43043;DHT22;28667;50.758;6.096;2022-09-03T00:11:13;17.50;71.60
43043;DHT22;28667;50.758;6.096;2022-09-03T00:13:49;17.40;71.80
43043;DHT22;28667;50.758;6.096;2022-09-03T00:16:16;17.40;72.10
43043;DHT22;28667;50.758;6.096;2022-09-03T00:18:49;17.30;72.60
43043;DHT22;28667;50.758;6.096;2022-09-03T00:21:26;17.30;72.90
43043;DHT22;28667;50.758;6.096;2022-09-03T00:23:54;17.20;73.20
43043;DHT22;28667;50.758;6.096;2022-09-03T00:26:27;17.20;73.50
43043;DHT22;28667;50.758;6.096;2022-09-03T00:29:01;17.10;73.40
43043;DHT22;28667;50.758;6.096;2022-09-03T00:34:01;17.00;74.60
43043;DHT22;28667;50.758;6.096;2022-09-03T00:36:44;16.90;74.90
43043;DHT22;28667;50.758;6.096;2022-09-03T00:39:17;16.80;75.20
43043;DHT22;28667;50.758;6.096;2022-09-03T00:50:14;16.50;76.50
43043;DHT22;28667;50.758;6.096;2022-09-03T00:52:55;16.40;76.80
43043;DHT22;28667;50.758;6.096;2022-09-03T00:55:37;16.40;77.00
43043;DHT22;28667;50.758;6.096;2022-09-03T01:00:51;16.30;77.50
43043;DHT22;28667;50.758;6.096;2022-09-03T01:03:53;16.20;77.70
43043;DHT22;28667;50.758;6.096;2022-09-03T01:06:32;16.10;77.80
43043;DHT22;28667;50.758;6.096;2022-09-03T01:17:31;15.90;78.10
43043;DHT22;28667;50.758;6.096;2022-09-03T01:23:16;15.90;78.40
43043;DHT22;28667;50.758;6.096;2022-09-03T01:28:52;15.80;78.60
43043;DHT22;28667;50.758;6.096;2022-09-03T01:31:44;15.80;79.20
43043;DHT22;28667;50.758;6.096;2022-09-03T01:48:00;15.70;80.40
43043;DHT22;28667;50.758;6.096;2022-09-03T01:50:57;15.80;81.00
43043;DHT22;28667;50.758;6.096;2022-09-03T01:59:34;15.80;80.80
43043;DHT22;28667;50.758;6.096;2022-09-03T02:02:29;15.80;81.30
43043;DHT22;28667;50.758;6.096;2022-09-03T02:05:02;15.80;81.30
43043;DHT22;28667;50.758;6.096;2022-09-03T02:07:35;15.80;81.40
43043;DHT22;28667;50.758;6.096;2022-09-03T02:10:06;15.80;81.60
43043;DHT22;28667;50.758;6.096;2022-09-03T02:12:34;15.80;81.40
43043;DHT22;28667;50.758;6.096;2022-09-03T02:15:08;15.80;81.60
43043;DHT22;28667;50.758;6.096;2022-09-03T02:17:35;15.80;81.60
43043;DHT22;28667;50.758;6.096;2022-09-03T02:20:07;15.90;82.10
43043;DHT22;28667;50.758;6.096;2022-09-03T02:22:37;15.90;82.40
43043;DHT22;28667;50.758;6.096;2022-09-03T02:25:05;15.90;82.00
43043;DHT22;28667;50.758;6.096;2022-09-03T02:27:32;16.00;81.80
43043;DHT22;28667;50.758;6.096;2022-09-03T02:29:59;16.00;81.90
43043;DHT22;28667;50.758;6.096;2022-09-03T02:32:25;16.00;81.90
43043;DHT22;28667;50.758;6.096;2022-09-03T02:34:51;16.10;81.90
43043;DHT22;28667;50.758;6.096;2022-09-03T02:37:18;16.10;81.30
43043;DHT22;28667;50.758;6.096;2022-09-03T02:39:44;16.10;81.40
43043;DHT22;28667;50.758;6.096;2022-09-03T02:42:11;16.10;81.20
43043;DHT22;28667;50.758;6.096;2022-09-03T02:44:43;16.20;80.80
43043;DHT22;28667;50.758;6.096;2022-09-03T02:47:09;16.20;80.70
43043;DHT22;28667;50.758;6.096;2022-09-03T02:49:35;16.20;80.70
43043;DHT22;28667;50.758;6.096;2022-09-03T02:52:04;16.20;80.70
43043;DHT22;28667;50.758;6.096;2022-09-03T02:54:31;16.20;80.60
43043;DHT22;28667;50.758;6.096;2022-09-03T02:57:01;16.30;80.70
43043;DHT22;28667;50.758;6.096;2022-09-03T02:59:27;16.30;80.70
43043;DHT22;28667;50.758;6.096;2022-09-03T03:01:54;16.30;80.60
43043;DHT22;28667;50.758;6.096;2022-09-03T03:04:20;16.30;80.50
43043;DHT22;28667;50.758;6.096;2022-09-03T03:06:47;16.30;80.60
43043;DHT22;28667;50.758;6.096;2022-09-03T03:09:17;16.30;80.90
43043;DHT22;28667;50.758;6.096;2022-09-03T03:11:43;16.30;80.70
43043;DHT22;28667;50.758;6.096;2022-09-03T03:14:10;16.30;81.20
43043;DHT22;28667;50.758;6.096;2022-09-03T03:16:36;16.30;80.60
43043;DHT22;28667;50.758;6.096;2022-09-03T03:19:02;16.30;80.80
43043;DHT22;28667;50.758;6.096;2022-09-03T03:21:28;16.30;81.00
43043;DHT22;28667;50.758;6.096;2022-09-03T03:23:55;16.30;81.00
43043;DHT22;28667;50.758;6.096;2022-09-03T03:26:21;16.30;81.10
43043;DHT22;28667;50.758;6.096;2022-09-03T03:28:54;16.30;81.30
43043;DHT22;28667;50.758;6.096;2022-09-03T03:31:22;16.30;82.00
43043;DHT22;28667;50.758;6.096;2022-09-03T03:33:57;16.30;82.60
43043;DHT22;28667;50.758;6.096;2022-09-03T03:36:25;16.30;82.80
43043;DHT22;28667;50.758;6.096;2022-09-03T03:38:56;16.30;82.70
43043;DHT22;28667;50.758;6.096;2022-09-03T03:41:25;16.30;82.80
43043;DHT22;28667;50.758;6.096;2022-09-03T03:43:57;16.30;83.00
43043;DHT22;28667;50.758;6.096;2022-09-03T03:46:27;16.30;83.60
43043;DHT22;28667;50.758;6.096;2022-09-03T03:48:53;16.30;82.90
43043;DHT22;28667;50.758;6.096;2022-09-03T03:51:20;16.30;82.80
43043;DHT22;28667;50.758;6.096;2022-09-03T03:53:46;16.30;82.90
43043;DHT22;28667;50.758;6.096;2022-09-03T03:56:14;16.30;83.10
43043;DHT22;28667;50.758;6.096;2022-09-03T03:58:42;16.20;83.00
43043;DHT22;28667;50.758;6.096;2022-09-03T04:01:29;16.30;82.90
43043;DHT22;28667;50.758;6.096;2022-09-03T04:03:56;16.30;82.70
43043;DHT22;28667;50.758;6.096;2022-09-03T04:06:23;16.20;82.60
43043;DHT22;28667;50.758;6.096;2022-09-03T04:08:50;16.20;82.90
43043;DHT22;28667;50.758;6.096;2022-09-03T04:11:18;16.30;83.90
43043;DHT22;28667;50.758;6.096;2022-09-03T04:13:46;16.30;83.90
43043;DHT22;28667;50.758;6.096;2022-09-03T04:16:13;16.30;83.90
43043;DHT22;28667;50.758;6.096;2022-09-03T04:18:40;16.30;83.90
43043;DHT22;28667;50.758;6.096;2022-09-03T04:21:09;16.30;84.20
43043;DHT22;28667;50.758;6.096;2022-09-03T04:23:38;16.30;84.50
43043;DHT22;28667;50.758;6.096;2022-09-03T04:26:05;16.20;84.40
43043;DHT22;28667;50.758;6.096;2022-09-03T04:28:32;16.30;84.50
43043;DHT22;28667;50.758;6.096;2022-09-03T04:31:06;16.20;84.30
43043;DHT22;28667;50.758;6.096;2022-09-03T04:33:33;16.20;84.30
43043;DHT22;28667;50.758;6.096;2022-09-03T04:36:07;16.20;84.30
43043;DHT22;28667;50.758;6.096;2022-09-03T04:38:35;16.10;84.90
43043;DHT22;28667;50.758;6.096;2022-09-03T04:41:03;16.10;85.80
43043;DHT22;28667;50.758;6.096;2022-09-03T04:43:30;16.00;86.00
43043;DHT22;28667;50.758;6.096;2022-09-03T04:45:59;16.00;86.30
43043;DHT22;28667;50.758;6.096;2022-09-03T04:48:26;15.90;86.10
43043;DHT22;28667;50.758;6.096;2022-09-03T04:50:54;15.90;86.10
43043;DHT22;28667;50.758;6.096;2022-09-03T04:53:28;15.90;86.30
43043;DHT22;28667;50.758;6.096;2022-09-03T04:55:54;15.80;86.30
43043;DHT22;28667;50.758;6.096;2022-09-03T04:58:21;15.80;86.60
43043;DHT22;28667;50.758;6.096;2022-09-03T05:00:47;15.80;86.50
43043;DHT22;28667;50.758;6.096;2022-09-03T05:03:14;15.70;86.70
43043;DHT22;28667;50.758;6.096;2022-09-03T05:05:40;15.70;87.10
43043;DHT22;28667;50.758;6.096;2022-09-03T05:08:07;15.70;87.30
43043;DHT22;28667;50.758;6.096;2022-09-03T05:10:34;15.70;87.30
43043;DHT22;28667;50.758;6.096;2022-09-03T05:13:03;15.70;87.30
43043;DHT22;28667;50.758;6.096;2022-09-03T05:15:31;15.70;87.20
43043;DHT22;28667;50.758;6.096;2022-09-03T05:17:58;15.70;87.10
43043;DHT22;28667;50.758;6.096;2022-09-03T05:20:27;15.70;87.10
43043;DHT22;28667;50.758;6.096;2022-09-03T05:23:01;15.60;87.30
43043;DHT22;28667;50.758;6.096;2022-09-03T05:25:29;15.60;87.60
43043;DHT22;28667;50.758;6.096;2022-09-03T05:27:58;15.60;87.30
43043;DHT22;28667;50.758;6.096;2022-09-03T05:30:25;15.60;87.10
43043;DHT22;28667;50.758;6.096;2022-09-03T05:32:51;15.60;86.70
43043;DHT22;28667;50.758;6.096;2022-09-03T05:35:17;15.60;86.50
43043;DHT22;28667;50.758;6.096;2022-09-03T05:37:44;15.70;86.70
43043;DHT22;28667;50.758;6.096;2022-09-03T05:40:10;15.70;86.60
43043;DHT22;28667;50.758;6.096;2022-09-03T05:42:39;15.70;86.60
43043;DHT22;28667;50.758;6.096;2022-09-03T05:45:09;15.80;86.40
43043;DHT22;28667;50.758;6.096;2022-09-03T05:47:39;15.80;86.40
43043;DHT22;28667;50.758;6.096;2022-09-03T05:50:07;15.90;86.90
43043;DHT22;28667;50.758;6.096;2022-09-03T05:52:36;15.90;86.90
43043;DHT22;28667;50.758;6.096;2022-09-03T05:55:03;16.00;86.60
43043;DHT22;28667;50.758;6.096;2022-09-03T05:57:29;16.00;86.30
43043;DHT22;28667;50.758;6.096;2022-09-03T05:59:56;16.10;86.10
43043;DHT22;28667;50.758;6.096;2022-09-03T06:02:22;16.10;85.80
43043;DHT22;28667;50.758;6.096;2022-09-03T06:04:48;16.20;85.50
43043;DHT22;28667;50.758;6.096;2022-09-03T06:07:15;16.30;85.30
43043;DHT22;28667;50.758;6.096;2022-09-03T06:09:42;16.30;85.20
43043;DHT22;28667;50.758;6.096;2022-09-03T06:12:08;16.40;85.30
43043;DHT22;28667;50.758;6.096;2022-09-03T06:14:34;16.50;85.10
43043;DHT22;28667;50.758;6.096;2022-09-03T06:17:00;16.50;85.00
43043;DHT22;28667;50.758;6.096;2022-09-03T06:19:26;16.60;84.90
43043;DHT22;28667;50.758;6.096;2022-09-03T06:21:52;16.60;84.70
43043;DHT22;28667;50.758;6.096;2022-09-03T06:24:20;16.70;84.70
43043;DHT22;28667;50.758;6.096;2022-09-03T06:26:49;16.80;84.70
43043;DHT22;28667;50.758;6.096;2022-09-03T06:29:16;16.80;84.50
43043;DHT22;28667;50.758;6.096;2022-09-03T06:31:43;16.90;84.50
43043;DHT22;28667;50.758;6.096;2022-09-03T06:34:10;16.90;84.50
43043;DHT22;28667;50.758;6.096;2022-09-03T06:36:35;17.00;84.60
43043;DHT22;28667;50.758;6.096;2022-09-03T06:39:02;17.00;84.70
43043;DHT22;28667;50.758;6.096;2022-09-03T06:41:30;17.10;84.80
43043;DHT22;28667;50.758;6.096;2022-09-03T06:44:02;17.20;85.00
43043;DHT22;28667;50.758;6.096;2022-09-03T06:46:31;17.20;84.80
43043;DHT22;28667;50.758;6.096;2022-09-03T06:48:57;17.30;85.30
43043;DHT22;28667;50.758;6.096;2022-09-03T06:51:25;17.40;84.60
43043;DHT22;28667;50.758;6.096;2022-09-03T06:53:58;17.50;84.60
43043;DHT22;28667;50.758;6.096;2022-09-03T06:56:24;17.70;84.60
43043;DHT22;28667;50.758;6.096;2022-09-03T06:58:56;17.80;84.60
43043;DHT22;28667;50.758;6.096;2022-09-03T07:01:24;17.90;84.70
43043;DHT22;28667;50.758;6.096;2022-09-03T07:03:56;18.00;84.60
43043;DHT22;28667;50.758;6.096;2022-09-03T07:06:24;18.10;84.50
43043;DHT22;28667;50.758;6.096;2022-09-03T07:08:53;18.10;84.40
43043;DHT22;28667;50.758;6.096;2022-09-03T07:11:23;18.20;84.50
43043;DHT22;28667;50.758;6.096;2022-09-03T07:13:51;18.30;84.40
43043;DHT22;28667;50.758;6.096;2022-09-03T07:16:19;18.40;84.50
43043;DHT22;28667;50.758;6.096;2022-09-03T07:18:46;18.40;84.60
43043;DHT22;28667;50.758;6.096;2022-09-03T07:21:14;18.40;84.70
43043;DHT22;28667;50.758;6.096;2022-09-03T07:23:43;18.50;84.70
43043;DHT22;28667;50.758;6.096;2022-09-03T07:26:12;18.50;84.80
43043;DHT22;28667;50.758;6.096;2022-09-03T07:28:41;18.60;85.00
43043;DHT22;28667;50.758;6.096;2022-09-03T07:31:13;18.60;85.10
43043;DHT22;28667;50.758;6.096;2022-09-03T07:33:41;18.60;85.10
43043;DHT22;28667;50.758;6.096;2022-09-03T07:36:09;18.70;85.20
43043;DHT22;28667;50.758;6.096;2022-09-03T07:38:37;18.80;85.60
43043;DHT22;28667;50.758;6.096;2022-09-03T07:41:06;18.80;85.80
43043;DHT22;28667;50.758;6.096;2022-09-03T07:43:37;18.80;86.10
43043;DHT22;28667;50.758;6.096;2022-09-03T07:46:16;18.90;86.20
43043;DHT22;28667;50.758;6.096;2022-09-03T07:48:53;18.80;86.80
43043;DHT22;28667;50.758;6.096;2022-09-03T07:51:21;18.90;87.30
43043;DHT22;28667;50.758;6.096;2022-09-03T07:53:55;18.90;87.80
43043;DHT22;28667;50.758;6.096;2022-09-03T07:56:23;18.90;88.20
43043;DHT22;28667;50.758;6.096;2022-09-03T07:58:50;19.00;88.70
43043;DHT22;28667;50.758;6.096;2022-09-03T08:01:18;19.10;88.50
43043;DHT22;28667;50.758;6.096;2022-09-03T08:03:48;19.20;88.30
43043;DHT22;28667;50.758;6.096;2022-09-03T08:06:16;19.20;88.40
43043;DHT22;28667;50.758;6.096;2022-09-03T08:08:44;19.30;88.50
43043;DHT22;28667;50.758;6.096;2022-09-03T08:11:18;19.40;89.00
43043;DHT22;28667;50.758;6.096;2022-09-03T08:13:55;19.50;88.30
43043;DHT22;28667;50.758;6.096;2022-09-03T08:16:29;19.60;88.00
43043;DHT22;28667;50.758;6.096;2022-09-03T08:18:55;19.70;88.00
43043;DHT22;28667;50.758;6.096;2022-09-03T08:21:22;19.70;88.00
43043;DHT22;28667;50.758;6.096;2022-09-03T08:23:51;19.80;88.00
43043;DHT22;28667;50.758;6.096;2022-09-03T08:26:19;19.90;88.00
43043;DHT22;28667;50.758;6.096;2022-09-03T08:28:45;19.80;88.20
43043;DHT22;28667;50.758;6.096;2022-09-03T08:31:17;19.80;88.30
43043;DHT22;28667;50.758;6.096;2022-09-03T08:33:46;19.80;88.30
43043;DHT22;28667;50.758;6.096;2022-09-03T08:36:15;19.80;88.60
43043;DHT22;28667;50.758;6.096;2022-09-03T08:38:43;19.80;89.40
43043;DHT22;28667;50.758;6.096;2022-09-03T08:41:14;19.80;90.10
43043;DHT22;28667;50.758;6.096;2022-09-03T08:51:54;20.00;90.50
43043;DHT22;28667;50.758;6.096;2022-09-03T08:54:25;20.10;90.80
43043;DHT22;28667;50.758;6.096;2022-09-03T08:56:54;20.10;91.00
43043;DHT22;28667;50.758;6.096;2022-09-03T08:59:23;20.20;91.00
43043;DHT22;28667;50.758;6.096;2022-09-03T09:04:42;20.40;90.90
43043;DHT22;28667;50.758;6.096;2022-09-03T09:10:43;20.60;90.90
43043;DHT22;28667;50.758;6.096;2022-09-03T09:13:32;20.80;90.70
43043;DHT22;28667;50.758;6.096;2022-09-03T09:16:21;21.00;90.50
43043;DHT22;28667;50.758;6.096;2022-09-03T09:21:44;21.40;90.10
43043;DHT22;28667;50.758;6.096;2022-09-03T09:24:24;21.60;89.90
43043;DHT22;28667;50.758;6.096;2022-09-03T09:26:58;21.80;89.60
43043;DHT22;28667;50.758;6.096;2022-09-03T09:29:31;22.00;89.10
43043;DHT22;28667;50.758;6.096;2022-09-03T09:31:58;22.20;88.70
43043;DHT22;28667;50.758;6.096;2022-09-03T09:34:24;22.30;88.20
43043;DHT22;28667;50.758;6.096;2022-09-03T09:36:54;22.40;87.70
43043;DHT22;28667;50.758;6.096;2022-09-03T09:39:21;22.50;87.30
43043;DHT22;28667;50.758;6.096;2022-09-03T09:42:06;22.60;87.00
43043;DHT22;28667;50.758;6.096;2022-09-03T09:44:40;22.70;87.60
43043;DHT22;28667;50.758;6.096;2022-09-03T09:47:24;22.80;86.90
43043;DHT22;28667;50.758;6.096;2022-09-03T09:49:56;22.90;86.20
43043;DHT22;28667;50.758;6.096;2022-09-03T09:52:25;23.00;85.80
43043;DHT22;28667;50.758;6.096;2022-09-03T09:55:08;23.10;86.00
43043;DHT22;28667;50.758;6.096;2022-09-03T09:57:35;23.20;85.70
43043;DHT22;28667;50.758;6.096;2022-09-03T10:00:12;23.30;85.20
43043;DHT22;28667;50.758;6.096;2022-09-03T10:02:51;23.50;84.80
43043;DHT22;28667;50.758;6.096;2022-09-03T10:05:29;23.60;83.90
43043;DHT22;28667;50.758;6.096;2022-09-03T10:08:02;23.70;83.80
43043;DHT22;28667;50.758;6.096;2022-09-03T10:10:31;23.80;83.70
43043;DHT22;28667;50.758;6.096;2022-09-03T10:18:25;24.10;82.20
43043;DHT22;28667;50.758;6.096;2022-09-03T10:21:07;24.30;81.60
43043;DHT22;28667;50.758;6.096;2022-09-03T10:23:47;24.50;81.60
43043;DHT22;28667;50.758;6.096;2022-09-03T10:26:17;24.70;81.20
43043;DHT22;28667;50.758;6.096;2022-09-03T10:28:47;24.80;80.60
43043;DHT22;28667;50.758;6.096;2022-09-03T10:37:01;25.20;79.30
43043;DHT22;28667;50.758;6.096;2022-09-03T10:43:17;25.40;78.40
43043;DHT22;28667;50.758;6.096;2022-09-03T10:45:56;25.20;78.30
43043;DHT22;28667;50.758;6.096;2022-09-03T10:51:35;24.80;79.00
43043;DHT22;28667;50.758;6.096;2022-09-03T10:54:10;24.60;79.80
43043;DHT22;28667;50.758;6.096;2022-09-03T10:56:56;24.30;80.40
43043;DHT22;28667;50.758;6.096;2022-09-03T11:08:02;23.80;82.30
43043;DHT22;28667;50.758;6.096;2022-09-03T11:10:34;23.70;82.80
43043;DHT22;28667;50.758;6.096;2022-09-03T11:13:12;23.70;82.60
43043;DHT22;28667;50.758;6.096;2022-09-03T11:18:35;23.90;82.60
43043;DHT22;28667;50.758;6.096;2022-09-03T11:21:07;24.00;81.80
43043;DHT22;28667;50.758;6.096;2022-09-03T11:23:45;24.10;80.90
43043;DHT22;28667;50.758;6.096;2022-09-03T11:26:15;24.30;80.50
43043;DHT22;28667;50.758;6.096;2022-09-03T11:28:58;24.50;80.00
43043;DHT22;28667;50.758;6.096;2022-09-03T11:36:33;25.10;78.60
43043;DHT22;28667;50.758;6.096;2022-09-03T11:39:11;25.20;78.00
43043;DHT22;28667;50.758;6.096;2022-09-03T11:41:38;25.30;77.90
43043;DHT22;28667;50.758;6.096;2022-09-03T11:44:16;25.30;78.00
43043;DHT22;28667;50.758;6.096;2022-09-03T11:46:54;25.30;77.30
43043;DHT22;28667;50.758;6.096;2022-09-03T11:49:28;25.30;77.00
43043;DHT22;28667;50.758;6.096;2022-09-03T11:52:01;25.20;77.20
43043;DHT22;28667;50.758;6.096;2022-09-03T11:54:31;25.10;77.20
43043;DHT22;28667;50.758;6.096;2022-09-03T11:57:20;25.10;77.50
43043;DHT22;28667;50.758;6.096;2022-09-03T11:59:46;25.10;77.30
43043;DHT22;28667;50.758;6.096;2022-09-03T12:11:25;24.80;78.10
43043;DHT22;28667;50.758;6.096;2022-09-03T12:21:52;24.70;78.80
43043;DHT22;28667;50.758;6.096;2022-09-03T12:24:19;24.70;78.70
43043;DHT22;28667;50.758;6.096;2022-09-03T12:26:48;24.70;78.70
43043;DHT22;28667;50.758;6.096;2022-09-03T12:29:28;24.70;78.00
43043;DHT22;28667;50.758;6.096;2022-09-03T12:31:55;24.80;78.40
43043;DHT22;28667;50.758;6.096;2022-09-03T12:34:31;24.90;77.80
43043;DHT22;28667;50.758;6.096;2022-09-03T12:36:57;25.00;77.40
43043;DHT22;28667;50.758;6.096;2022-09-03T12:39:27;25.20;77.30
43043;DHT22;28667;50.758;6.096;2022-09-03T12:42:04;25.30;76.90
43043;DHT22;28667;50.758;6.096;2022-09-03T12:49:37;25.40;76.20
43043;DHT22;28667;50.758;6.096;2022-09-03T12:52:27;25.50;76.10
43043;DHT22;28667;50.758;6.096;2022-09-03T12:55:00;25.40;76.50
43043;DHT22;28667;50.758;6.096;2022-09-03T12:57:51;25.40;76.30
43043;DHT22;28667;50.758;6.096;2022-09-03T13:00:18;25.20;76.30
43043;DHT22;28667;50.758;6.096;2022-09-03T13:02:56;25.20;76.80
43043;DHT22;28667;50.758;6.096;2022-09-03T13:05:32;25.10;76.70
43043;DHT22;28667;50.758;6.096;2022-09-03T13:08:04;25.10;76.90
43043;DHT22;28667;50.758;6.096;2022-09-03T13:10:37;25.00;77.00
43043;DHT22;28667;50.758;6.096;2022-09-03T13:13:20;25.00;77.40
43043;DHT22;28667;50.758;6.096;2022-09-03T13:21:14;25.20;77.10
43043;DHT22;28667;50.758;6.096;2022-09-03T13:32:01;25.80;75.70
43043;DHT22;28667;50.758;6.096;2022-09-03T13:34:39;26.00;75.60
43043;DHT22;28667;50.758;6.096;2022-09-03T13:40:05;26.30;75.00
43043;DHT22;28667;50.758;6.096;2022-09-03T13:42:44;26.30;74.80
43043;DHT22;28667;50.758;6.096;2022-09-03T13:50:43;26.10;74.80
43043;DHT22;28667;50.758;6.096;2022-09-03T13:56:12;26.00;75.00
43043;DHT22;28667;50.758;6.096;2022-09-03T13:58:45;26.00;75.60
43043;DHT22;28667;50.758;6.096;2022-09-03T14:01:42;25.80;75.40
43043;DHT22;28667;50.758;6.096;2022-09-03T14:04:20;25.70;75.80
43043;DHT22;28667;50.758;6.096;2022-09-03T14:07:02;25.60;76.00
43043;DHT22;28667;50.758;6.096;2022-09-03T14:12:33;25.40;76.20
43043;DHT22;28667;50.758;6.096;2022-09-03T14:15:13;25.40;76.50
43043;DHT22;28667;50.758;6.096;2022-09-03T14:23:34;25.00;80.20
43043;DHT22;28667;50.758;6.096;2022-09-03T14:26:04;24.70;81.40
43043;DHT22;28667;50.758;6.096;2022-09-03T14:28:41;24.50;83.60
43043;DHT22;28667;50.758;6.096;2022-09-03T14:34:31;23.90;90.90
43043;DHT22;28667;50.758;6.096;2022-09-03T14:57:13;22.30;98.50
43043;DHT22;28667;50.758;6.096;2022-09-03T14:59:55;22.20;99.30
43043;DHT22;28667;50.758;6.096;2022-09-03T15:05:16;22.30;99.90
43043;DHT22;28667;50.758;6.096;2022-09-03T15:07:58;22.40;99.90
43043;DHT22;28667;50.758;6.096;2022-09-03T15:10:54;22.60;99.90
43043;DHT22;28667;50.758;6.096;2022-09-03T15:32:20;25.10;98.00
43043;DHT22;28667;50.758;6.096;2022-09-03T15:37:47;25.70;95.90
43043;DHT22;28667;50.758;6.096;2022-09-03T15:40:30;26.00;94.90
43043;DHT22;28667;50.758;6.096;2022-09-03T15:43:08;26.00;93.70
43043;DHT22;28667;50.758;6.096;2022-09-03T15:53:24;26.10;93.00
43043;DHT22;28667;50.758;6.096;2022-09-03T15:56:21;26.00;93.70
43043;DHT22;28667;50.758;6.096;2022-09-03T15:59:02;25.90;93.30
43043;DHT22;28667;50.758;6.096;2022-09-03T16:01:56;25.70;92.40
43043;DHT22;28667;50.758;6.096;2022-09-03T16:04:53;25.40;92.30
43043;DHT22;28667;50.758;6.096;2022-09-03T16:15:37;25.00;96.80
43043;DHT22;28667;50.758;6.096;2022-09-03T16:20:53;25.00;97.50
43043;DHT22;28667;50.758;6.096;2022-09-03T16:23:30;25.00;96.40
43043;DHT22;28667;50.758;6.096;2022-09-03T16:26:12;25.00;95.00
43043;DHT22;28667;50.758;6.096;2022-09-03T16:28:53;25.10;94.40
43043;DHT22;28667;50.758;6.096;2022-09-03T17:06:42;24.70;92.50
43043;DHT22;28667;50.758;6.096;2022-09-03T17:12:29;24.40;93.60
43043;DHT22;28667;50.758;6.096;2022-09-03T17:15:04;24.30;94.20
43043;DHT22;28667;50.758;6.096;2022-09-03T17:20:33;24.20;93.60
43043;DHT22;28667;50.758;6.096;2022-09-03T17:25:53;24.20;95.60
43043;DHT22;28667;50.758;6.096;2022-09-03T17:28:37;24.10;96.10
43043;DHT22;28667;50.758;6.096;2022-09-03T17:31:16;23.90;96.50
43043;DHT22;28667;50.758;6.096;2022-09-03T17:36:59;23.50;97.30
43043;DHT22;28667;50.758;6.096;2022-09-03T17:42:16;23.20;97.30
43043;DHT22;28667;50.758;6.096;2022-09-03T17:53:19;22.70;98.00
43043;DHT22;28667;50.758;6.096;2022-09-03T17:55:56;22.60;97.90
43043;DHT22;28667;50.758;6.096;2022-09-03T18:11:46;21.90;99.00
43043;DHT22;28667;50.758;6.096;2022-09-03T18:14:21;21.80;99.40
43043;DHT22;28667;50.758;6.096;2022-09-03T18:22:01;21.30;99.90
43043;DHT22;28667;50.758;6.096;2022-09-03T18:24:56;21.20;99.90
43043;DHT22;28667;50.758;6.096;2022-09-03T18:27:46;21.00;99.90
43043;DHT22;28667;50.758;6.096;2022-09-03T18:30:33;20.90;99.90
43043;DHT22;28667;50.758;6.096;2022-09-03T18:33:27;20.70;99.90
43043;DHT22;28667;50.758;6.096;2022-09-03T18:36:12;20.60;99.90
43043;DHT22;28667;50.758;6.096;2022-09-03T18:39:26;20.50;99.90
43043;DHT22;28667;50.758;6.096;2022-09-03T18:48:20;20.20;99.90
43043;DHT22;28667;50.758;6.096;2022-09-03T18:54:17;20.00;99.90
43043;DHT22;28667;50.758;6.096;2022-09-03T18:57:22;19.90;99.90
43043;DHT22;28667;50.758;6.096;2022-09-03T19:00:14;19.80;99.90
43043;DHT22;28667;50.758;6.096;2022-09-03T19:09:40;19.60;99.90
43043;DHT22;28667;50.758;6.096;2022-09-03T19:12:26;19.50;99.90
43043;DHT22;28667;50.758;6.096;2022-09-03T19:15:27;19.40;99.90
43043;DHT22;28667;50.758;6.096;2022-09-03T19:21:42;19.30;99.90
43043;DHT22;28667;50.758;6.096;2022-09-03T19:24:30;19.30;99.90
43043;DHT22;28667;50.758;6.096;2022-09-03T19:27:43;19.20;99.90
43043;DHT22;28667;50.758;6.096;2022-09-03T19:37:12;19.10;99.90
43043;DHT22;28667;50.758;6.096;2022-09-03T19:43:25;19.10;99.90
43043;DHT22;28667;50.758;6.096;2022-09-03T19:55:07;19.00;99.90
43043;DHT22;28667;50.758;6.096;2022-09-03T19:57:58;19.00;99.90
43043;DHT22;28667;50.758;6.096;2022-09-03T20:00:44;18.90;99.90
43043;DHT22;28667;50.758;6.096;2022-09-03T20:03:29;18.90;99.90
43043;DHT22;28667;50.758;6.096;2022-09-03T20:06:15;18.90;99.90
43043;DHT22;28667;50.758;6.096;2022-09-03T20:09:07;18.80;99.90
43043;DHT22;28667;50.758;6.096;2022-09-03T20:11:56;18.80;99.90
43043;DHT22;28667;50.758;6.096;2022-09-03T20:14:24;18.70;99.90
43043;DHT22;28667;50.758;6.096;2022-09-03T20:16:59;18.70;99.90
43043;DHT22;28667;50.758;6.096;2022-09-03T20:22:18;18.60;99.90
43043;DHT22;28667;50.758;6.096;2022-09-03T20:31:13;18.50;99.90
43043;DHT22;28667;50.758;6.096;2022-09-03T20:44:50;18.40;99.90
43043;DHT22;28667;50.758;6.096;2022-09-03T20:52:52;18.30;99.90
43043;DHT22;28667;50.758;6.096;2022-09-03T20:55:38;18.30;99.90
43043;DHT22;28667;50.758;6.096;2022-09-03T21:01:04;18.30;99.90
43043;DHT22;28667;50.758;6.096;2022-09-03T21:07:10;18.20;99.90
43043;DHT22;28667;50.758;6.096;2022-09-03T21:09:59;18.10;99.90
43043;DHT22;28667;50.758;6.096;2022-09-03T21:12:54;18.10;99.90
43043;DHT22;28667;50.758;6.096;2022-09-03T21:24:29;18.00;99.90
43043;DHT22;28667;50.758;6.096;2022-09-03T21:27:03;18.00;99.90
43043;DHT22;28667;50.758;6.096;2022-09-03T21:32:19;17.90;99.90
43043;DHT22;28667;50.758;6.096;2022-09-03T21:37:21;17.90;99.90
43043;DHT22;28667;50.758;6.096;2022-09-03T21:39:54;17.80;99.90
43043;DHT22;28667;50.758;6.096;2022-09-03T21:45:05;17.80;99.90
43043;DHT22;28667;50.758;6.096;2022-09-03T21:47:39;17.80;99.90
43043;DHT22;28667;50.758;6.096;2022-09-03T21:50:19;17.70;99.90
43043;DHT22;28667;50.758;6.096;2022-09-03T21:55:19;17.70;99.90
43043;DHT22;28667;50.758;6.096;2022-09-03T22:00:26;17.70;99.90
43043;DHT22;28667;50.758;6.096;2022-09-03T22:02:58;17.70;99.90
43043;DHT22;28667;50.758;6.096;2022-09-03T22:05:28;17.60;99.90
43043;DHT22;28667;50.758;6.096;2022-09-03T22:08:14;17.60;99.90
43043;DHT22;28667;50.758;6.096;2022-09-03T22:16:09;17.60;99.90
43043;DHT22;28667;50.758;6.096;2022-09-03T22:18:38;17.60;99.90
43043;DHT22;28667;50.758;6.096;2022-09-03T22:21:15;17.60;99.90
43043;DHT22;28667;50.758;6.096;2022-09-03T22:26:56;17.60;99.90
43043;DHT22;28667;50.758;6.096;2022-09-03T22:34:47;17.50;99.90
43043;DHT22;28667;50.758;6.096;2022-09-03T22:42:41;17.40;99.90
43043;DHT22;28667;50.758;6.096;2022-09-03T22:48:39;17.40;99.90
43043;DHT22;28667;50.758;6.096;2022-09-03T22:51:09;17.30;99.90
43043;DHT22;28667;50.758;6.096;2022-09-03T22:56:22;17.30;99.90
43043;DHT22;28667;50.758;6.096;2022-09-03T22:58:53;17.30;99.90
43043;DHT22;28667;50.758;6.096;2022-09-03T23:01:26;17.30;99.90
43043;DHT22;28667;50.758;6.096;2022-09-03T23:04:06;17.30;99.90
43043;DHT22;28667;50.758;6.096;2022-09-03T23:06:38;17.20;99.90
43043;DHT22;28667;50.758;6.096;2022-09-03T23:09:12;17.20;99.90
43043;DHT22;28667;50.758;6.096;2022-09-03T23:11:44;17.10;99.90
43043;DHT22;28667;50.758;6.096;2022-09-03T23:14:41;17.10;99.90